Time;durP1;ratioP1;P1;durP2;ratioP2;P2;SDS_P1;SDS_P2;PMS_P1;PMS_P2;Temp;Humidity;BMP_temperature;BMP_pressure;BME280_temperature;BME280_humidity;BME280_pressure;Samples;Min_cycle;Max_cycle;Signal;HPM_P1;HPM_P2
2022/01/17 00:00:48;;;;;;;;;;;18.90;47.80;;;;;;5146779;27;43029;-81
2022/01/17 00:03:13;;;;;;;;;;;18.90;48.10;;;;;;5146349;27;43348;-77
2022/01/17 00:05:39;;;;;;;;;;;18.80;48.00;;;;;;5146836;27;42958;-72
2022/01/17 00:08:04;;;;;;;;;;;18.90;48.10;;;;;;5145747;27;43010;-80
2022/01/17 00:10:30;;;;;;;;;;;18.90;48.30;;;;;;5146261;27;42887;-81
2022/01/17 00:12:58;;;;;;;;;;;18.90;48.30;;;;;;5146037;27;42920;-78
2022/01/17 00:15:30;;;;;;;;;;;18.90;48.30;;;;;;5127101;27;43001;-73
2022/01/17 00:20:46;;;;;;;;;;;18.90;48.40;;;;;;5106486;27;43047;-73
2022/01/17 00:23:15;;;;;;;;;;;18.80;48.40;;;;;;5146563;27;43196;-76
2022/01/17 00:25:40;;;;;;;;;;;18.80;48.30;;;;;;5146537;27;42961;-73
2022/01/17 00:28:06;;;;;;;;;;;18.90;48.50;;;;;;5146642;27;42852;-81
2022/01/17 00:30:31;;;;;;;;;;;18.90;48.50;;;;;;5146969;27;42906;-82
2022/01/17 00:32:57;;;;;;;;;;;18.80;48.60;;;;;;5146639;27;42837;-81
2022/01/17 00:35:24;;;;;;;;;;;18.90;48.70;;;;;;5146624;27;42984;-78
2022/01/17 00:37:49;;;;;;;;;;;18.80;48.90;;;;;;5146627;27;43378;-80
2022/01/17 00:40:15;;;;;;;;;;;18.90;49.00;;;;;;5146601;27;42943;-77
2022/01/17 00:42:42;;;;;;;;;;;18.80;49.00;;;;;;5146549;27;43702;-79
2022/01/17 00:45:08;;;;;;;;;;;18.90;49.10;;;;;;5146434;27;43070;-76
2022/01/17 00:47:34;;;;;;;;;;;18.80;49.10;;;;;;5145434;27;44563;-73
2022/01/17 00:50:00;;;;;;;;;;;18.90;49.20;;;;;;5146139;27;42915;-73
2022/01/17 00:52:25;;;;;;;;;;;18.80;49.20;;;;;;5149690;27;42910;-76
2022/01/17 00:54:51;;;;;;;;;;;18.90;49.30;;;;;;5149507;27;43056;-75
2022/01/17 00:57:17;;;;;;;;;;;18.80;49.30;;;;;;5148994;27;43018;-79
2022/01/17 00:59:43;;;;;;;;;;;18.80;49.30;;;;;;5149587;27;42886;-73
2022/01/17 01:02:08;;;;;;;;;;;18.90;49.50;;;;;;5149661;27;42799;-75
2022/01/17 01:04:34;;;;;;;;;;;18.80;49.50;;;;;;5149887;27;42853;-78
2022/01/17 01:06:59;;;;;;;;;;;18.80;49.60;;;;;;5149631;27;43716;-73
2022/01/17 01:09:28;;;;;;;;;;;18.80;49.80;;;;;;5148719;27;43070;-79
2022/01/17 01:11:54;;;;;;;;;;;18.90;49.90;;;;;;5147773;27;43594;-78
2022/01/17 01:14:19;;;;;;;;;;;18.80;49.90;;;;;;5149036;27;42928;-76
2022/01/17 01:16:45;;;;;;;;;;;18.80;49.80;;;;;;5148450;27;42947;-73
2022/01/17 01:19:27;;;;;;;;;;;18.80;49.90;;;;;;5148883;27;43079;-72
2022/01/17 01:29:46;;;;;;;;;;;18.80;50.30;;;;;;5148787;27;43076;-73
2022/01/17 01:32:13;;;;;;;;;;;18.90;50.30;;;;;;5149002;27;43014;-81
2022/01/17 01:34:44;;;;;;;;;;;18.80;50.40;;;;;;5148629;27;42945;-80
2022/01/17 01:37:09;;;;;;;;;;;18.80;50.30;;;;;;5147726;27;43684;-78
2022/01/17 01:39:37;;;;;;;;;;;18.80;50.40;;;;;;5148249;27;43002;-76
2022/01/17 01:42:04;;;;;;;;;;;18.80;50.40;;;;;;5147738;27;43945;-76
2022/01/17 01:44:30;;;;;;;;;;;18.80;50.60;;;;;;5148510;27;42962;-75
2022/01/17 01:46:56;;;;;;;;;;;18.80;50.70;;;;;;5147394;27;42876;-81
2022/01/17 01:49:21;;;;;;;;;;;18.80;50.90;;;;;;5148267;27;42878;-77
2022/01/17 01:51:47;;;;;;;;;;;18.80;51.60;;;;;;5148197;27;42939;-82
2022/01/17 01:54:14;;;;;;;;;;;18.80;51.60;;;;;;5148207;27;42967;-79
2022/01/17 01:56:41;;;;;;;;;;;18.80;51.70;;;;;;5147598;27;42894;-73
2022/01/17 01:59:06;;;;;;;;;;;18.80;51.60;;;;;;5148475;27;43209;-79
2022/01/17 02:01:33;;;;;;;;;;;18.80;51.60;;;;;;5147492;27;42918;-81
2022/01/17 02:03:58;;;;;;;;;;;18.80;51.70;;;;;;5148196;27;42881;-73
2022/01/17 02:06:24;;;;;;;;;;;18.80;51.60;;;;;;5147777;27;43046;-73
2022/01/17 02:08:49;;;;;;;;;;;18.80;51.70;;;;;;5147800;27;42818;-74
2022/01/17 02:11:15;;;;;;;;;;;18.80;51.70;;;;;;5147741;27;43602;-80
2022/01/17 02:13:41;;;;;;;;;;;18.80;52.00;;;;;;5148779;27;43160;-76
2022/01/17 02:16:12;;;;;;;;;;;18.80;51.80;;;;;;5148282;27;43960;-73
2022/01/17 02:18:38;;;;;;;;;;;18.80;52.00;;;;;;5148385;27;42986;-72
2022/01/17 02:23:46;;;;;;;;;;;18.80;52.00;;;;;;5166223;27;42869;-74
2022/01/17 02:26:12;;;;;;;;;;;18.80;52.10;;;;;;5168695;27;43991;-74
2022/01/17 02:28:37;;;;;;;;;;;18.80;52.20;;;;;;5165480;27;43095;-73
2022/01/17 02:31:07;;;;;;;;;;;18.80;52.30;;;;;;5167190;27;42918;-76
2022/01/17 02:33:33;;;;;;;;;;;18.80;52.10;;;;;;5148703;27;42949;-75
2022/01/17 02:35:59;;;;;;;;;;;18.80;52.20;;;;;;5147300;27;42944;-73
2022/01/17 02:38:24;;;;;;;;;;;18.80;52.10;;;;;;5148310;27;43127;-77
2022/01/17 02:40:50;;;;;;;;;;;18.80;52.30;;;;;;5148636;27;43882;-80
2022/01/17 02:43:18;;;;;;;;;;;18.70;52.10;;;;;;5148833;27;42953;-73
2022/01/17 02:48:21;;;;;;;;;;;18.80;52.10;;;;;;5147823;27;42926;-79
2022/01/17 02:50:47;;;;;;;;;;;18.80;52.00;;;;;;5147670;27;43665;-80
2022/01/17 02:53:13;;;;;;;;;;;18.80;52.10;;;;;;5147455;27;43207;-73
2022/01/17 02:55:40;;;;;;;;;;;18.80;52.10;;;;;;5147247;27;43182;-72
2022/01/17 02:58:06;;;;;;;;;;;18.70;51.90;;;;;;5147271;27;42963;-72
2022/01/17 03:00:32;;;;;;;;;;;18.70;51.90;;;;;;5147650;27;42962;-80
2022/01/17 03:02:57;;;;;;;;;;;18.80;51.90;;;;;;5147336;27;43070;-80
2022/01/17 03:05:23;;;;;;;;;;;18.70;52.00;;;;;;5147208;27;42838;-73
2022/01/17 03:07:49;;;;;;;;;;;18.70;51.90;;;;;;5147004;27;43011;-73
2022/01/17 03:12:49;;;;;;;;;;;18.80;52.00;;;;;;5146251;27;42747;-72
2022/01/17 03:15:15;;;;;;;;;;;18.80;52.20;;;;;;5146557;27;42921;-72
2022/01/17 03:17:40;;;;;;;;;;;18.70;52.00;;;;;;5147147;27;42978;-80
2022/01/17 03:20:06;;;;;;;;;;;18.70;52.10;;;;;;5146652;27;42906;-75
2022/01/17 03:22:33;;;;;;;;;;;18.70;52.10;;;;;;5146390;27;42957;-80
2022/01/17 03:24:58;;;;;;;;;;;18.70;52.00;;;;;;5127146;27;44106;-74
2022/01/17 03:27:24;;;;;;;;;;;18.70;52.00;;;;;;5146949;27;43038;-81
2022/01/17 03:29:49;;;;;;;;;;;18.70;52.00;;;;;;5146838;27;43166;-79
2022/01/17 03:32:15;;;;;;;;;;;18.70;52.00;;;;;;5147112;27;43383;-73
2022/01/17 03:34:40;;;;;;;;;;;18.70;52.00;;;;;;5146927;27;43513;-72
2022/01/17 03:37:06;;;;;;;;;;;18.70;52.00;;;;;;5146776;27;43221;-72
2022/01/17 03:39:31;;;;;;;;;;;18.70;51.90;;;;;;5146837;27;43661;-72
2022/01/17 03:41:57;;;;;;;;;;;18.70;52.00;;;;;;5147563;27;42987;-71
2022/01/17 03:44:22;;;;;;;;;;;18.70;52.00;;;;;;5146519;27;42969;-72
2022/01/17 03:46:48;;;;;;;;;;;18.70;52.00;;;;;;5126242;27;42956;-72
2022/01/17 03:49:13;;;;;;;;;;;18.70;51.90;;;;;;5125606;27;43348;-73
2022/01/17 03:51:39;;;;;;;;;;;18.70;52.00;;;;;;5126430;27;42853;-72
2022/01/17 03:54:06;;;;;;;;;;;18.70;52.00;;;;;;5126100;27;42817;-72
2022/01/17 03:56:32;;;;;;;;;;;18.70;52.00;;;;;;5126416;27;43063;-77
2022/01/17 03:58:57;;;;;;;;;;;18.70;51.90;;;;;;5126184;27;43603;-73
2022/01/17 04:01:23;;;;;;;;;;;18.70;52.10;;;;;;5126302;27;42999;-76
2022/01/17 04:03:48;;;;;;;;;;;18.70;52.00;;;;;;5125983;27;43554;-73
2022/01/17 04:06:18;;;;;;;;;;;18.70;52.00;;;;;;5125870;27;43105;-73
2022/01/17 04:08:44;;;;;;;;;;;18.70;52.00;;;;;;5125102;27;43085;-74
2022/01/17 04:11:09;;;;;;;;;;;18.60;51.90;;;;;;5125955;27;42970;-76
2022/01/17 04:13:35;;;;;;;;;;;18.70;51.90;;;;;;5126186;27;42915;-74
2022/01/17 04:16:01;;;;;;;;;;;18.70;52.00;;;;;;5125357;27;42878;-73
2022/01/17 04:18:27;;;;;;;;;;;18.60;51.90;;;;;;5124399;27;42975;-75
2022/01/17 04:20:53;;;;;;;;;;;18.70;52.00;;;;;;5125599;27;43180;-79
2022/01/17 04:23:19;;;;;;;;;;;18.60;52.00;;;;;;5125260;27;42858;-72
2022/01/17 04:25:44;;;;;;;;;;;18.60;51.90;;;;;;5128512;27;43037;-75
2022/01/17 04:28:11;;;;;;;;;;;18.60;51.90;;;;;;5129493;27;43478;-71
2022/01/17 04:30:37;;;;;;;;;;;18.60;52.00;;;;;;5110793;27;43005;-79
2022/01/17 04:33:03;;;;;;;;;;;18.60;51.90;;;;;;5128149;27;42788;-72
2022/01/17 04:35:29;;;;;;;;;;;18.60;52.10;;;;;;5129032;27;42952;-78
2022/01/17 04:37:57;;;;;;;;;;;18.60;52.00;;;;;;5127878;27;42919;-73
2022/01/17 04:40:23;;;;;;;;;;;18.60;52.20;;;;;;5129347;27;42939;-81
2022/01/17 04:42:53;;;;;;;;;;;18.60;52.10;;;;;;5128805;27;43415;-72
2022/01/17 04:45:20;;;;;;;;;;;18.60;52.20;;;;;;5128870;27;42916;-74
2022/01/17 04:47:50;;;;;;;;;;;18.60;52.40;;;;;;5128478;27;43004;-72
2022/01/17 04:50:17;;;;;;;;;;;18.60;52.30;;;;;;5129716;27;43011;-77
2022/01/17 04:52:43;;;;;;;;;;;18.70;52.40;;;;;;5129354;27;42879;-72
2022/01/17 04:55:09;;;;;;;;;;;18.60;52.40;;;;;;5129335;27;43046;-73
2022/01/17 04:57:36;;;;;;;;;;;18.60;52.30;;;;;;5133463;27;43679;-75
2022/01/17 05:00:02;;;;;;;;;;;18.60;52.30;;;;;;5130637;27;43179;-79
2022/01/17 05:02:28;;;;;;;;;;;18.60;52.20;;;;;;5129330;27;44480;-73
2022/01/17 05:04:53;;;;;;;;;;;18.60;52.30;;;;;;5131671;27;42968;-80
2022/01/17 05:07:19;;;;;;;;;;;18.60;52.30;;;;;;5129988;27;42905;-81
2022/01/17 05:09:46;;;;;;;;;;;18.60;52.30;;;;;;5129272;27;42962;-72
2022/01/17 05:12:12;;;;;;;;;;;18.60;52.30;;;;;;5129922;27;42898;-81
2022/01/17 05:14:44;;;;;;;;;;;18.60;52.30;;;;;;5129127;27;42955;-72
2022/01/17 05:17:59;;;;;;;;;;;18.60;52.30;;;;;;5132201;27;43583;-81
2022/01/17 05:19:58;;;;;;;;;;;18.60;52.30;;;;;;5132563;27;43058;-73
2022/01/17 05:22:25;;;;;;;;;;;18.60;52.30;;;;;;5149617;27;42826;-72
2022/01/17 05:24:50;;;;;;;;;;;18.60;52.30;;;;;;5149631;27;42851;-79
2022/01/17 05:27:16;;;;;;;;;;;18.50;52.40;;;;;;5148780;27;44296;-72
2022/01/17 05:29:42;;;;;;;;;;;18.50;52.20;;;;;;5146932;27;42977;-79
2022/01/17 05:32:07;;;;;;;;;;;18.60;52.20;;;;;;5144892;27;43564;-79
2022/01/17 05:34:40;;;;;;;;;;;18.50;52.10;;;;;;5126321;27;43025;-71
2022/01/17 05:37:09;;;;;;;;;;;18.50;52.20;;;;;;5145641;27;42980;-72
2022/01/17 05:39:35;;;;;;;;;;;18.50;52.20;;;;;;5147299;27;43201;-73
2022/01/17 05:42:01;;;;;;;;;;;18.50;52.20;;;;;;5147533;27;43594;-74
2022/01/17 05:44:26;;;;;;;;;;;18.50;52.20;;;;;;5149570;27;43497;-73
2022/01/17 05:46:52;;;;;;;;;;;18.50;52.10;;;;;;5130478;27;44187;-71
2022/01/17 05:49:18;;;;;;;;;;;18.50;52.10;;;;;;5132949;27;42895;-77
2022/01/17 05:51:43;;;;;;;;;;;18.50;52.10;;;;;;5144109;27;43579;-71
2022/01/17 05:54:09;;;;;;;;;;;18.50;52.10;;;;;;5121887;27;43165;-81
2022/01/17 05:56:34;;;;;;;;;;;18.50;52.20;;;;;;5137734;27;43674;-72
2022/01/17 05:59:00;;;;;;;;;;;18.50;52.10;;;;;;5145400;27;43093;-74
2022/01/17 06:01:25;;;;;;;;;;;18.50;52.10;;;;;;5141629;27;43719;-72
2022/01/17 06:03:51;;;;;;;;;;;18.50;52.00;;;;;;5145913;27;42994;-80
2022/01/17 06:06:16;;;;;;;;;;;18.50;52.10;;;;;;5147671;27;43069;-81
2022/01/17 06:08:42;;;;;;;;;;;18.50;51.80;;;;;;5146363;27;43163;-83
2022/01/17 06:11:07;;;;;;;;;;;18.50;51.80;;;;;;5123351;27;44636;-73
2022/01/17 06:13:33;;;;;;;;;;;18.50;51.60;;;;;;5146342;27;43021;-73
2022/01/17 06:15:58;;;;;;;;;;;18.50;51.70;;;;;;5144535;27;43200;-76
2022/01/17 06:18:24;;;;;;;;;;;18.50;51.40;;;;;;5126809;27;43190;-72
2022/01/17 06:20:50;;;;;;;;;;;18.50;51.50;;;;;;5131722;27;43015;-72
2022/01/17 06:23:15;;;;;;;;;;;18.50;51.20;;;;;;5144121;27;42905;-80
2022/01/17 06:25:41;;;;;;;;;;;18.50;51.10;;;;;;5139458;27;42982;-72
2022/01/17 06:28:06;;;;;;;;;;;18.50;50.30;;;;;;5129379;27;42932;-77
2022/01/17 06:30:32;;;;;;;;;;;18.50;50.90;;;;;;5133217;27;42955;-78
2022/01/17 06:32:57;;;;;;;;;;;18.50;50.50;;;;;;5144955;27;42963;-73
2022/01/17 06:35:23;;;;;;;;;;;18.50;48.90;;;;;;5146552;27;43392;-87
2022/01/17 06:37:48;;;;;;;;;;;18.50;48.10;;;;;;5126676;27;42952;-82
2022/01/17 06:40:14;;;;;;;;;;;19.20;48.20;;;;;;5139719;27;42767;-82
2022/01/17 06:42:41;;;;;;;;;;;18.50;47.30;;;;;;5144463;27;43069;-75
2022/01/17 06:45:07;;;;;;;;;;;18.50;49.50;;;;;;5135301;27;43475;-72
2022/01/17 06:47:33;;;;;;;;;;;18.50;46.70;;;;;;5147895;27;43142;-80
2022/01/17 06:49:59;;;;;;;;;;;18.50;46.60;;;;;;5133084;27;42968;-72
2022/01/17 06:52:25;;;;;;;;;;;18.40;46.60;;;;;;5126929;27;42927;-80
2022/01/17 06:54:52;;;;;;;;;;;18.40;45.80;;;;;;5127934;27;43385;-80
2022/01/17 06:57:18;;;;;;;;;;;18.40;46.80;;;;;;5127163;27;43481;-80
2022/01/17 06:59:43;;;;;;;;;;;18.40;47.10;;;;;;5127340;27;43719;-72
2022/01/17 07:02:09;;;;;;;;;;;18.40;46.20;;;;;;5126370;27;42986;-78
2022/01/17 07:04:35;;;;;;;;;;;18.40;45.30;;;;;;5126384;27;43154;-79
2022/01/17 07:07:01;;;;;;;;;;;18.40;46.90;;;;;;5127397;27;42950;-73
2022/01/17 07:09:28;;;;;;;;;;;18.40;44.40;;;;;;5126246;27;44212;-88
2022/01/17 07:11:58;;;;;;;;;;;18.40;44.70;;;;;;5126910;27;43023;-74
2022/01/17 07:14:24;;;;;;;;;;;18.40;49.80;;;;;;5126409;27;44530;-83
2022/01/17 07:16:49;;;;;;;;;;;18.40;49.80;;;;;;5126986;27;42951;-72
2022/01/17 07:19:15;;;;;;;;;;;18.40;49.40;;;;;;5127100;27;43576;-72
2022/01/17 07:21:40;;;;;;;;;;;18.50;47.30;;;;;;5127307;27;42934;-82
2022/01/17 07:24:06;;;;;;;;;;;18.50;47.20;;;;;;5126727;27;42925;-76
2022/01/17 07:26:32;;;;;;;;;;;18.50;48.10;;;;;;5126433;27;42958;-81
2022/01/17 07:28:57;;;;;;;;;;;18.50;50.40;;;;;;5126163;27;43386;-90
2022/01/17 07:31:23;;;;;;;;;;;18.50;50.40;;;;;;5126872;27;42876;-73
2022/01/17 07:33:48;;;;;;;;;;;18.50;50.30;;;;;;5126944;27;43139;-73
2022/01/17 07:36:18;;;;;;;;;;;18.50;50.30;;;;;;5126444;27;42913;-73
2022/01/17 07:38:43;;;;;;;;;;;18.50;51.00;;;;;;5126745;27;42794;-72
2022/01/17 07:41:09;;;;;;;;;;;18.50;51.00;;;;;;5126785;27;42843;-76
2022/01/17 07:43:37;;;;;;;;;;;18.50;50.90;;;;;;5127325;27;42851;-86
2022/01/17 07:46:07;;;;;;;;;;;18.50;51.00;;;;;;5126875;27;43029;-73
2022/01/17 07:51:11;;;;;;;;;;;18.50;51.10;;;;;;5126861;27;42975;-85
2022/01/17 07:53:37;;;;;;;;;;;18.50;50.50;;;;;;5126550;27;42943;-83
2022/01/17 07:56:03;;;;;;;;;;;18.50;50.60;;;;;;5126086;27;43095;-85
2022/01/17 07:58:29;;;;;;;;;;;18.50;51.10;;;;;;5126085;27;43459;-72
2022/01/17 08:00:54;;;;;;;;;;;18.50;51.20;;;;;;5126728;27;43162;-90
2022/01/17 08:03:20;;;;;;;;;;;18.50;51.20;;;;;;5125646;27;42946;-72
2022/01/17 08:05:45;;;;;;;;;;;18.50;51.10;;;;;;5125967;27;42962;-72
2022/01/17 08:08:11;;;;;;;;;;;18.50;51.30;;;;;;5125063;27;43098;-72
2022/01/17 08:10:38;;;;;;;;;;;18.50;51.20;;;;;;5124909;27;58563;-72
2022/01/17 08:13:04;;;;;;;;;;;18.50;51.20;;;;;;5126707;27;43266;-80
2022/01/17 08:15:31;;;;;;;;;;;18.50;51.20;;;;;;5126428;27;43174;-74
2022/01/17 08:17:56;;;;;;;;;;;18.60;51.30;;;;;;5126010;27;43317;-72
2022/01/17 08:20:22;;;;;;;;;;;18.60;51.00;;;;;;5124984;27;42888;-83
2022/01/17 08:22:48;;;;;;;;;;;18.50;51.40;;;;;;5126257;27;43627;-73
2022/01/17 08:25:14;;;;;;;;;;;18.90;51.70;;;;;;5126223;27;42877;-73
2022/01/17 08:27:40;;;;;;;;;;;18.50;51.30;;;;;;5126218;27;42941;-73
2022/01/17 08:30:06;;;;;;;;;;;18.50;51.30;;;;;;5125784;27;42983;-81
2022/01/17 08:32:32;;;;;;;;;;;18.60;51.40;;;;;;5125385;27;43404;-72
2022/01/17 08:34:58;;;;;;;;;;;18.60;51.70;;;;;;5125746;27;42984;-73
2022/01/17 08:37:25;;;;;;;;;;;18.60;51.70;;;;;;5126041;27;43328;-73
2022/01/17 08:39:51;;;;;;;;;;;18.60;51.80;;;;;;5125347;27;42888;-77
2022/01/17 08:42:17;;;;;;;;;;;17.80;42.10;;;;;;5125691;27;42909;-72
2022/01/17 08:44:49;;;;;;;;;;;17.00;39.70;;;;;;5125964;27;42822;-80
2022/01/17 08:47:15;;;;;;;;;;;16.90;38.60;;;;;;5125923;27;44060;-72
2022/01/17 08:49:40;;;;;;;;;;;16.90;37.70;;;;;;5125354;27;42966;-75
2022/01/17 08:52:06;;;;;;;;;;;16.70;37.30;;;;;;5106359;27;44410;-78
2022/01/17 08:54:31;;;;;;;;;;;16.50;37.50;;;;;;5125216;27;42802;-72
2022/01/17 08:56:57;;;;;;;;;;;16.30;37.50;;;;;;5125256;27;43751;-75
2022/01/17 08:59:22;;;;;;;;;;;16.30;37.50;;;;;;5125417;27;42836;-79
2022/01/17 09:01:48;;;;;;;;;;;16.30;37.60;;;;;;5125439;27;42810;-77
2022/01/17 09:04:13;;;;;;;;;;;16.80;41.50;;;;;;5125667;27;43073;-75
2022/01/17 09:06:39;;;;;;;;;;;17.30;43.90;;;;;;5125673;27;43269;-75
2022/01/17 09:09:04;;;;;;;;;;;17.60;45.40;;;;;;5124942;27;43260;-76
2022/01/17 09:11:30;;;;;;;;;;;17.70;45.90;;;;;;5124913;27;42920;-71
2022/01/17 09:13:55;;;;;;;;;;;17.80;45.90;;;;;;5128640;27;42829;-71
2022/01/17 09:16:21;;;;;;;;;;;17.90;46.30;;;;;;5129081;27;43368;-76
2022/01/17 09:18:46;;;;;;;;;;;17.90;46.00;;;;;;5129161;27;42977;-71
2022/01/17 09:21:12;;;;;;;;;;;18.00;46.20;;;;;;5128663;27;42934;-70
2022/01/17 09:23:39;;;;;;;;;;;18.00;45.90;;;;;;5128957;27;43022;-72
2022/01/17 09:26:05;;;;;;;;;;;18.10;46.20;;;;;;5127476;27;43558;-72
2022/01/17 09:28:30;;;;;;;;;;;18.10;46.00;;;;;;5128970;27;42939;-72
2022/01/17 09:30:56;;;;;;;;;;;18.10;46.10;;;;;;5121904;27;44555;-75
2022/01/17 09:33:21;;;;;;;;;;;18.10;45.80;;;;;;5128205;27;42939;-75
2022/01/17 09:35:47;;;;;;;;;;;18.20;45.90;;;;;;5136530;27;43442;-70
2022/01/17 09:38:12;;;;;;;;;;;18.20;45.20;;;;;;5136484;27;43007;-70
2022/01/17 09:40:38;;;;;;;;;;;18.20;45.70;;;;;;5147776;27;43076;-71
2022/01/17 09:43:05;;;;;;;;;;;18.20;45.80;;;;;;5142661;27;43019;-70
2022/01/17 09:45:31;;;;;;;;;;;18.30;45.60;;;;;;5148742;27;43495;-70
2022/01/17 09:47:58;;;;;;;;;;;18.30;45.30;;;;;;5129115;27;42987;-70
2022/01/17 09:50:33;;;;;;;;;;;18.40;45.00;;;;;;5146545;27;43798;-70
2022/01/17 09:52:59;;;;;;;;;;;18.50;44.60;;;;;;5148932;27;43002;-73
2022/01/17 09:55:27;;;;;;;;;;;18.70;44.30;;;;;;5137622;27;43462;-70
2022/01/17 09:57:56;;;;;;;;;;;18.80;44.10;;;;;;5127950;27;42965;-70
2022/01/17 10:00:25;;;;;;;;;;;18.90;43.70;;;;;;5143421;27;42981;-70
2022/01/17 10:02:55;;;;;;;;;;;19.00;43.60;;;;;;5148511;27;43276;-70
2022/01/17 10:05:21;;;;;;;;;;;19.10;43.60;;;;;;5148513;27;43580;-70
2022/01/17 10:07:51;;;;;;;;;;;19.10;44.10;;;;;;5148563;27;42953;-69
2022/01/17 10:10:17;;;;;;;;;;;18.90;44.50;;;;;;5145170;27;43071;-70
2022/01/17 10:12:42;;;;;;;;;;;18.70;44.10;;;;;;5146967;27;42900;-70
2022/01/17 10:15:15;;;;;;;;;;;18.70;44.40;;;;;;5145336;27;43274;-70
2022/01/17 10:17:47;;;;;;;;;;;18.70;44.30;;;;;;5131185;27;42971;-71
2022/01/17 10:20:16;;;;;;;;;;;18.70;44.40;;;;;;5128481;27;43009;-74
2022/01/17 10:22:51;;;;;;;;;;;18.70;44.50;;;;;;5146320;27;42928;-72
2022/01/17 10:25:51;;;;;;;;;;;18.70;44.60;;;;;;5139646;27;43453;-70
2022/01/17 10:36:48;;;;;;;;;;;18.60;44.70;;;;;;5093076;27;43074;-69
2022/01/17 10:39:14;;;;;;;;;;;18.60;45.40;;;;;;5101535;27;43070;-70
2022/01/17 10:41:39;;;;;;;;;;;18.60;45.10;;;;;;5084357;27;43784;-70
2022/01/17 10:44:05;;;;;;;;;;;18.60;44.90;;;;;;5103454;27;43008;-74
2022/01/17 10:46:31;;;;;;;;;;;18.60;44.90;;;;;;5104315;27;42956;-70
2022/01/17 10:48:57;;;;;;;;;;;18.60;44.90;;;;;;5103707;27;42850;-74
2022/01/17 10:51:32;;;;;;;;;;;18.60;45.00;;;;;;5103485;27;43075;-75
2022/01/17 10:53:58;;;;;;;;;;;18.60;45.00;;;;;;5095300;27;42987;-73
2022/01/17 10:56:25;;;;;;;;;;;18.60;45.00;;;;;;5091504;27;43403;-75
2022/01/17 10:59:00;;;;;;;;;;;18.60;45.10;;;;;;5103928;27;42857;-70
2022/01/17 11:01:34;;;;;;;;;;;18.60;45.00;;;;;;5090297;27;42940;-69
2022/01/17 11:04:00;;;;;;;;;;;18.60;45.30;;;;;;5085237;27;43586;-72
2022/01/17 11:06:25;;;;;;;;;;;18.60;45.20;;;;;;5097638;27;43050;-71
2022/01/17 11:08:51;;;;;;;;;;;18.60;45.20;;;;;;5126077;27;42998;-69
2022/01/17 11:11:21;;;;;;;;;;;18.70;45.40;;;;;;5126510;27;43576;-70
2022/01/17 11:13:49;;;;;;;;;;;18.70;45.40;;;;;;5143485;27;42940;-71
2022/01/17 11:16:14;;;;;;;;;;;18.70;45.40;;;;;;5138209;27;42880;-69
2022/01/17 11:18:43;;;;;;;;;;;18.60;45.30;;;;;;5130438;27;43025;-70
2022/01/17 11:21:11;;;;;;;;;;;18.70;45.30;;;;;;5134560;27;43399;-69
2022/01/17 11:23:43;;;;;;;;;;;18.60;45.30;;;;;;5145743;27;42957;-71
2022/01/17 11:26:09;;;;;;;;;;;18.60;45.40;;;;;;5142094;27;43371;-69
2022/01/17 11:28:35;;;;;;;;;;;18.60;45.50;;;;;;5125265;27;42939;-70
2022/01/17 11:31:02;;;;;;;;;;;18.60;45.50;;;;;;5133795;27;42950;-69
2022/01/17 11:33:27;;;;;;;;;;;18.60;45.50;;;;;;5147050;27;42895;-71
2022/01/17 11:35:53;;;;;;;;;;;18.60;45.50;;;;;;5139819;27;43366;-69
2022/01/17 11:38:28;;;;;;;;;;;18.60;45.40;;;;;;5138649;27;43403;-71
2022/01/17 11:40:54;;;;;;;;;;;18.60;45.40;;;;;;5132930;27;43568;-69
2022/01/17 11:43:26;;;;;;;;;;;18.60;45.50;;;;;;5137517;27;42957;-70
2022/01/17 11:45:52;;;;;;;;;;;18.70;45.50;;;;;;5137067;27;43007;-70
2022/01/17 11:48:22;;;;;;;;;;;18.70;45.70;;;;;;5143353;27;42912;-69
2022/01/17 11:50:50;;;;;;;;;;;18.70;46.30;;;;;;5146391;27;43394;-72
2022/01/17 11:53:15;;;;;;;;;;;18.70;45.60;;;;;;5146845;27;43737;-70
2022/01/17 11:55:43;;;;;;;;;;;18.70;45.70;;;;;;5138030;27;43213;-70
2022/01/17 11:58:24;;;;;;;;;;;18.70;45.70;;;;;;5127115;27;42893;-74
2022/01/17 12:00:59;;;;;;;;;;;18.70;45.60;;;;;;5125660;27;43570;-70
2022/01/17 12:03:25;;;;;;;;;;;18.70;45.70;;;;;;5125440;27;42947;-69
2022/01/17 12:05:51;;;;;;;;;;;18.70;45.70;;;;;;5132006;27;44335;-76
2022/01/17 12:08:17;;;;;;;;;;;18.70;45.60;;;;;;5134707;27;43554;-70
2022/01/17 12:10:45;;;;;;;;;;;18.70;45.60;;;;;;5134025;27;43064;-75
2022/01/17 12:13:10;;;;;;;;;;;18.70;45.80;;;;;;5135799;27;42990;-73
2022/01/17 12:15:54;;;;;;;;;;;18.70;45.90;;;;;;5131742;27;43556;-70
2022/01/17 12:18:30;;;;;;;;;;;18.70;45.70;;;;;;5130418;27;42950;-76
2022/01/17 12:20:55;;;;;;;;;;;18.70;45.70;;;;;;5143849;27;42966;-77
2022/01/17 12:23:25;;;;;;;;;;;18.70;45.70;;;;;;5142244;27;43002;-70
2022/01/17 12:25:51;;;;;;;;;;;18.80;45.80;;;;;;5140040;27;43379;-72
2022/01/17 12:28:16;;;;;;;;;;;18.80;45.90;;;;;;5144625;27;42893;-75
2022/01/17 12:30:43;;;;;;;;;;;18.70;45.60;;;;;;5144717;27;42956;-71
2022/01/17 12:33:13;;;;;;;;;;;18.80;45.70;;;;;;5141856;27;43073;-75
2022/01/17 12:35:46;;;;;;;;;;;18.70;43.30;;;;;;5116777;27;46064;-72
2022/01/17 12:38:15;;;;;;;;;;;18.50;41.10;;;;;;5123146;27;43084;-72
2022/01/17 12:40:41;;;;;;;;;;;18.30;40.00;;;;;;5140039;27;44005;-70
2022/01/17 12:43:11;;;;;;;;;;;18.20;38.80;;;;;;5145722;27;43129;-71
2022/01/17 12:45:38;;;;;;;;;;;18.10;38.00;;;;;;5129043;27;43350;-76
2022/01/17 12:48:05;;;;;;;;;;;18.00;37.90;;;;;;5132430;27;43188;-71
2022/01/17 12:50:32;;;;;;;;;;;17.90;38.00;;;;;;5144790;27;43104;-71
2022/01/17 12:52:59;;;;;;;;;;;18.00;37.70;;;;;;5146048;27;43075;-71
2022/01/17 12:55:26;;;;;;;;;;;17.90;37.20;;;;;;5143969;27;43054;-73
2022/01/17 12:57:52;;;;;;;;;;;17.70;37.60;;;;;;5144094;27;43148;-71
2022/01/17 13:00:17;;;;;;;;;;;17.50;38.00;;;;;;5144099;27;42978;-72
2022/01/17 13:02:48;;;;;;;;;;;17.80;38.00;;;;;;5144801;27;42962;-73
2022/01/17 13:05:14;;;;;;;;;;;17.70;38.10;;;;;;5144841;27;43616;-76
2022/01/17 13:07:40;;;;;;;;;;;17.90;38.10;;;;;;5147319;27;42992;-73
2022/01/17 13:10:07;;;;;;;;;;;17.80;38.20;;;;;;5144678;27;42883;-72
2022/01/17 13:12:33;;;;;;;;;;;18.00;38.20;;;;;;5144043;27;42938;-70
2022/01/17 13:14:58;;;;;;;;;;;18.00;38.30;;;;;;5137707;27;42998;-71
2022/01/17 13:17:24;;;;;;;;;;;18.00;38.30;;;;;;5149938;27;42850;-70
2022/01/17 13:19:52;;;;;;;;;;;18.00;38.30;;;;;;5148070;27;42936;-70
2022/01/17 13:22:18;;;;;;;;;;;17.70;38.20;;;;;;5144804;27;43487;-71
2022/01/17 13:24:51;;;;;;;;;;;17.70;38.70;;;;;;5127989;27;43709;-70
2022/01/17 13:27:16;;;;;;;;;;;17.70;38.90;;;;;;5137930;27;42929;-70
2022/01/17 13:29:43;;;;;;;;;;;17.80;39.00;;;;;;5150920;27;43928;-70
2022/01/17 13:32:11;;;;;;;;;;;18.00;38.80;;;;;;5143945;27;42902;-72
2022/01/17 13:34:38;;;;;;;;;;;18.00;39.20;;;;;;5130597;27;43303;-73
2022/01/17 13:37:04;;;;;;;;;;;17.90;39.20;;;;;;5146127;27;43053;-70
2022/01/17 13:39:30;;;;;;;;;;;17.90;39.30;;;;;;5142480;27;42926;-69
2022/01/17 13:41:58;;;;;;;;;;;17.80;39.60;;;;;;5146030;27;42947;-70
2022/01/17 13:44:25;;;;;;;;;;;17.60;39.30;;;;;;5147157;27;43368;-71
2022/01/17 13:46:53;;;;;;;;;;;17.60;40.00;;;;;;5147587;27;43065;-72
2022/01/17 13:49:19;;;;;;;;;;;17.60;40.20;;;;;;5146606;27;43709;-70
2022/01/17 13:51:45;;;;;;;;;;;17.80;40.80;;;;;;5149177;27;42934;-76
2022/01/17 13:54:11;;;;;;;;;;;17.90;40.10;;;;;;5146238;27;43609;-70
2022/01/17 13:56:37;;;;;;;;;;;17.70;39.60;;;;;;5148667;27;43041;-69
2022/01/17 13:59:05;;;;;;;;;;;17.70;39.70;;;;;;5147475;27;42954;-74
2022/01/17 14:01:32;;;;;;;;;;;17.70;39.50;;;;;;5148537;27;42985;-72
2022/01/17 14:03:59;;;;;;;;;;;17.60;39.40;;;;;;5148651;27;43006;-80
2022/01/17 14:06:27;;;;;;;;;;;17.50;39.80;;;;;;5145983;27;44388;-70
2022/01/17 14:08:58;;;;;;;;;;;17.60;39.60;;;;;;5147904;27;43115;-72
2022/01/17 14:11:24;;;;;;;;;;;17.60;39.20;;;;;;5145927;27;43076;-70
2022/01/17 14:13:55;;;;;;;;;;;17.60;39.20;;;;;;5148047;27;43109;-75
2022/01/17 14:16:20;;;;;;;;;;;17.60;39.20;;;;;;5146034;27;43163;-73
2022/01/17 14:18:47;;;;;;;;;;;17.60;39.20;;;;;;5148167;27;43903;-71
2022/01/17 14:21:21;;;;;;;;;;;17.60;39.30;;;;;;5148534;27;42956;-69
2022/01/17 14:23:47;;;;;;;;;;;17.50;39.50;;;;;;5147854;27;43544;-70
2022/01/17 14:26:23;;;;;;;;;;;17.50;39.60;;;;;;5148284;27;42819;-72
2022/01/17 14:28:49;;;;;;;;;;;17.50;39.50;;;;;;5148034;27;43117;-70
2022/01/17 14:31:17;;;;;;;;;;;17.50;39.60;;;;;;5149470;27;43121;-71
2022/01/17 14:33:48;;;;;;;;;;;17.40;39.70;;;;;;5148050;27;43586;-70
2022/01/17 14:36:16;;;;;;;;;;;17.40;39.70;;;;;;5148224;27;43031;-71
2022/01/17 14:38:43;;;;;;;;;;;17.50;39.90;;;;;;5147871;27;43635;-75
2022/01/17 14:41:40;;;;;;;;;;;17.60;39.80;;;;;;5148811;27;42981;-70
2022/01/17 14:44:07;;;;;;;;;;;17.70;40.00;;;;;;5135807;27;43571;-69